createdAt,value
2019-05-21T00:00:30.127Z,22.20
2019-05-21T00:05:41.576Z,21.68
2019-05-21T00:10:51.202Z,16.90
2019-05-21T00:15:58.166Z,18.80
2019-05-21T00:21:04.889Z,16.60
2019-05-21T00:26:11.211Z,15.85
2019-05-21T00:32:17.807Z,15.65
2019-05-21T00:38:19.930Z,16.80
2019-05-21T00:43:58.197Z,15.63
2019-05-21T00:49:17.570Z,16.97
2019-05-21T00:54:35.102Z,20.50
2019-05-21T00:59:47.374Z,22.82
2019-05-21T01:05:00.604Z,21.65
2019-05-21T01:10:09.024Z,20.12
2019-05-21T01:15:37.553Z,21.80
2019-05-21T01:20:45.152Z,19.67
2019-05-21T01:25:51.467Z,18.35
2019-05-21T01:31:04.673Z,19.57
2019-05-21T01:36:12.968Z,20.37
2019-05-21T01:41:28.220Z,20.80
2019-05-21T01:46:36.989Z,21.65
2019-05-21T01:51:44.823Z,23.02
2019-05-21T01:56:49.595Z,22.15
2019-05-21T02:02:04.321Z,21.42
2019-05-21T02:07:13.552Z,19.92
2019-05-21T02:12:19.122Z,25.43
2019-05-21T02:17:29.187Z,26.62
2019-05-21T02:22:39.930Z,25.43
2019-05-21T02:28:08.308Z,19.50
2019-05-21T02:33:28.188Z,15.30
2019-05-21T02:38:34.417Z,16.85
2019-05-21T02:43:44.786Z,16.95
2019-05-21T02:48:50.550Z,15.70
2019-05-21T02:54:04.494Z,15.65
2019-05-21T02:59:09.687Z,13.62
2019-05-21T03:04:15.759Z,14.23
2019-05-21T03:09:30.645Z,14.80
2019-05-21T03:14:43.336Z,16.52
2019-05-21T03:20:00.164Z,16.15
2019-05-21T03:25:04.322Z,15.48
2019-05-21T03:30:15.310Z,15.80
2019-05-21T03:35:25.484Z,14.07
2019-05-21T03:40:29.108Z,14.13
2019-05-21T03:45:39.657Z,13.28
2019-05-21T03:50:57.181Z,13.72
2019-05-21T03:56:12.842Z,13.13
2019-05-21T04:01:30.563Z,15.75
2019-05-21T04:06:51.311Z,16.42
2019-05-21T04:11:56.127Z,15.30
2019-05-21T04:17:08.882Z,14.47
2019-05-21T04:22:28.550Z,16.00
2019-05-21T04:27:44.866Z,16.07
2019-05-21T04:32:56.265Z,18.52
2019-05-21T04:38:03.342Z,19.92
2019-05-21T04:43:10.002Z,22.30
2019-05-21T04:48:18.374Z,20.27
2019-05-21T04:53:31.682Z,25.08
2019-05-21T04:58:55.670Z,22.15
2019-05-21T05:04:08.855Z,22.42
2019-05-21T05:09:19.560Z,20.02
2019-05-21T05:14:53.884Z,21.20
2019-05-21T05:20:03.316Z,23.62
2019-05-21T05:25:12.901Z,18.25
2019-05-21T05:30:20.595Z,18.05
2019-05-21T06:03:31.616Z,14.87
2019-05-21T06:14:30.168Z,17.82
2019-05-21T07:23:14.713Z,22.45
2019-05-21T07:28:26.600Z,21.00
2019-05-21T07:39:10.413Z,25.62
2019-05-21T07:56:12.137Z,19.57
2019-05-21T08:29:24.285Z,18.05
2019-05-21T08:34:28.892Z,18.45
2019-05-21T08:39:33.485Z,19.55
2019-05-21T08:44:47.806Z,19.52
2019-05-21T08:50:00.260Z,21.50
2019-05-21T08:55:10.958Z,23.27
2019-05-21T09:00:24.960Z,21.50
2019-05-21T09:12:08.491Z,17.70
2019-05-21T09:17:06.108Z,19.92
2019-05-21T09:22:30.477Z,17.05
2019-05-21T09:27:40.929Z,19.20
2019-05-21T09:34:05.077Z,19.12
2019-05-21T09:51:05.475Z,21.73
2019-05-21T09:56:34.266Z,17.40
2019-05-21T10:02:16.636Z,12.45
2019-05-21T10:07:38.158Z,12.28
2019-05-21T11:47:08.322Z,7.13
2019-05-21T11:52:24.613Z,7.10
2019-05-21T11:58:50.624Z,7.70
2019-05-21T12:02:59.820Z,7.10
2019-05-21T12:13:57.610Z,7.15
2019-05-21T17:57:51.191Z,10.40
2019-05-21T18:43:27.820Z,7.50
2019-05-21T18:54:45.466Z,8.85
2019-05-21T19:05:07.209Z,8.28
2019-05-21T19:15:29.705Z,8.20
2019-05-21T19:37:06.116Z,8.63
2019-05-21T19:42:28.511Z,7.20
2019-05-21T19:53:17.386Z,7.30
2019-05-21T19:58:31.185Z,7.33
2019-05-21T20:04:05.829Z,8.13
2019-05-21T20:15:25.280Z,6.12
2019-05-21T21:29:59.026Z,6.50
2019-05-21T21:41:17.523Z,6.35
2019-05-21T21:52:12.246Z,7.12
2019-05-21T21:57:36.137Z,8.63
2019-05-21T22:19:19.319Z,7.27
2019-05-21T22:24:26.461Z,7.55
2019-05-21T22:29:37.104Z,8.13
2019-05-21T22:34:44.283Z,7.97
2019-05-21T22:39:51.200Z,8.28
2019-05-21T22:45:09.119Z,8.13
2019-05-21T22:50:18.804Z,8.60
2019-05-21T22:55:43.901Z,10.40
2019-05-21T23:00:51.940Z,9.60
2019-05-21T23:05:59.772Z,9.38
2019-05-21T23:11:07.417Z,10.38
2019-05-21T23:16:14.280Z,11.63
2019-05-21T23:21:26.615Z,12.95
2019-05-21T23:26:31.298Z,11.30
2019-05-21T23:31:45.655Z,11.53
2019-05-21T23:36:52.095Z,10.63
2019-05-21T23:42:04.531Z,9.65
2019-05-21T23:47:16.421Z,9.85
2019-05-21T23:52:21.158Z,10.25
2019-05-21T23:57:34.317Z,9.83
